createdAt,value
2023-03-30T00:01:43.004Z,98826.16
2023-03-30T00:04:12.621Z,98826.94
2023-03-30T00:06:43.098Z,98833.00
2023-03-30T00:09:12.346Z,98827.88
2023-03-30T00:11:44.528Z,98821.81
2023-03-30T00:14:13.392Z,98813.28
2023-03-30T00:16:42.332Z,98821.94
2023-03-30T00:19:10.826Z,98826.03
2023-03-30T00:21:39.346Z,98826.84
2023-03-30T00:24:09.531Z,98821.63
2023-03-30T00:26:38.171Z,98826.03
2023-03-30T00:29:06.869Z,98821.81
2023-03-30T00:31:36.299Z,98829.63
2023-03-30T00:34:05.294Z,98830.34
2023-03-30T00:36:37.341Z,98830.41
2023-03-30T00:39:07.158Z,98831.41
2023-03-30T00:41:40.648Z,98833.94
2023-03-30T00:44:10.842Z,98835.69
2023-03-30T00:46:39.536Z,98833.13
2023-03-30T00:49:11.274Z,98838.38
2023-03-30T00:51:41.768Z,98835.88
2023-03-30T00:54:13.077Z,98845.34
2023-03-30T00:56:43.112Z,98842.84
2023-03-30T00:59:12.034Z,98829.09
2023-03-30T01:01:41.844Z,98839.41
2023-03-30T01:04:13.515Z,98848.06
2023-03-30T01:06:43.603Z,98841.31
2023-03-30T01:09:12.287Z,98835.44
2023-03-30T01:11:43.832Z,98847.44
2023-03-30T01:14:14.064Z,98848.34
2023-03-30T01:16:48.808Z,98844.84
2023-03-30T01:19:43.851Z,98842.25
2023-03-30T01:22:29.764Z,98856.13
2023-03-30T01:25:23.143Z,98848.44
2023-03-30T01:28:09.830Z,98857.88
2023-03-30T01:31:20.171Z,98855.31
2023-03-30T01:34:19.000Z,98850.28
2023-03-30T01:37:10.908Z,98848.38
2023-03-30T01:39:50.319Z,98854.41
2023-03-30T01:42:24.840Z,98860.50
2023-03-30T01:44:58.021Z,98866.59
2023-03-30T01:47:31.492Z,98870.03
2023-03-30T01:50:04.220Z,98873.47
2023-03-30T01:52:38.679Z,98879.53
2023-03-30T01:55:13.511Z,98878.66
2023-03-30T01:57:45.214Z,98871.78
2023-03-30T02:00:18.043Z,98884.69
2023-03-30T02:02:52.854Z,98878.59
2023-03-30T02:05:24.396Z,98887.22
2023-03-30T02:07:57.169Z,98886.38
2023-03-30T02:10:29.982Z,98895.03
2023-03-30T02:13:00.509Z,98900.13
2023-03-30T02:15:35.134Z,98898.47
2023-03-30T02:18:05.200Z,98895.03
2023-03-30T02:20:36.450Z,98890.78
2023-03-30T02:23:06.779Z,98899.38
2023-03-30T02:25:38.673Z,98892.50
2023-03-30T02:28:09.720Z,98894.19
2023-03-30T02:30:41.183Z,98895.84
2023-03-30T02:33:11.312Z,98894.22
2023-03-30T02:36:10.035Z,98900.31
2023-03-30T02:38:48.488Z,98896.94
2023-03-30T02:41:30.522Z,98902.97
2023-03-30T02:44:08.097Z,98915.94
2023-03-30T02:46:46.972Z,98924.56
2023-03-30T02:49:19.289Z,98926.34
2023-03-30T02:51:56.421Z,98928.09
2023-03-30T02:54:51.193Z,98924.66
2023-03-30T02:57:31.322Z,98928.09
2023-03-30T03:00:25.405Z,98937.53
2023-03-30T03:02:59.398Z,98934.97
2023-03-30T03:05:34.044Z,98937.53
2023-03-30T03:08:17.307Z,98937.53
2023-03-30T03:10:47.344Z,98937.56
2023-03-30T03:13:20.811Z,98931.53
2023-03-30T03:15:57.228Z,98935.84
2023-03-30T03:18:29.025Z,98931.53
2023-03-30T03:20:57.793Z,98942.69
2023-03-30T03:23:27.033Z,98940.97
2023-03-30T03:25:57.665Z,98938.38
2023-03-30T03:28:27.619Z,98937.50
2023-03-30T03:31:06.881Z,98939.22
2023-03-30T03:33:37.000Z,98934.06
2023-03-30T03:36:12.369Z,98935.78
2023-03-30T03:38:47.770Z,98943.47
2023-03-30T03:41:17.677Z,98940.09
2023-03-30T03:43:48.245Z,98949.50
2023-03-30T03:46:19.768Z,98941.78
2023-03-30T03:48:48.716Z,98936.59
2023-03-30T03:51:17.266Z,98946.06
2023-03-30T03:53:49.861Z,98949.50
2023-03-30T03:56:20.953Z,98950.34
2023-03-30T03:58:53.069Z,98953.75
2023-03-30T04:01:28.812Z,98951.22
2023-03-30T04:03:57.457Z,98953.78
2023-03-30T04:06:29.205Z,98959.78
2023-03-30T04:08:57.706Z,98962.34
2023-03-30T04:11:43.029Z,98970.97
2023-03-30T04:14:41.530Z,98979.53
2023-03-30T04:17:18.887Z,98985.53
2023-03-30T04:20:13.348Z,98985.53
2023-03-30T04:23:04.548Z,98977.81
2023-03-30T04:26:09.141Z,98975.25
2023-03-30T04:29:03.060Z,98982.91
2023-03-30T04:31:41.876Z,98980.38
2023-03-30T04:34:47.184Z,98991.50
2023-03-30T04:37:36.076Z,98978.66
2023-03-30T04:40:40.155Z,98982.09
2023-03-30T04:43:44.950Z,98979.50
2023-03-30T04:46:37.061Z,98984.63
2023-03-30T04:49:25.573Z,98985.50
2023-03-30T04:52:15.771Z,98989.78
2023-03-30T04:55:03.032Z,98985.47
2023-03-30T04:58:07.458Z,98979.50
2023-03-30T05:01:01.889Z,98980.38
2023-03-30T05:04:06.279Z,98977.78
2023-03-30T05:06:55.549Z,98986.38
2023-03-30T05:09:32.714Z,98975.22
2023-03-30T05:12:19.644Z,98978.66
2023-03-30T05:14:59.959Z,98982.03
2023-03-30T05:17:57.898Z,98982.03
2023-03-30T05:20:45.048Z,98982.00
2023-03-30T05:23:39.816Z,98988.84
2023-03-30T05:26:44.513Z,98989.75
2023-03-30T05:29:32.929Z,98983.72
2023-03-30T05:32:20.057Z,98983.72
2023-03-30T05:35:10.755Z,98995.78
2023-03-30T05:37:51.830Z,98992.31
2023-03-30T05:40:53.257Z,98988.91
2023-03-30T05:43:40.492Z,98999.13
2023-03-30T05:46:32.466Z,99000.84
2023-03-30T05:49:29.571Z,99002.59
2023-03-30T05:52:14.996Z,99000.91
2023-03-30T05:54:55.694Z,98999.09
2023-03-30T05:57:54.334Z,99005.16
2023-03-30T06:00:37.517Z,98998.28
2023-03-30T06:03:18.293Z,99001.66
2023-03-30T06:05:50.821Z,99012.88
2023-03-30T06:08:22.608Z,99007.66
2023-03-30T06:10:57.832Z,99018.88
2023-03-30T06:13:30.399Z,99013.75
2023-03-30T06:16:01.448Z,99013.75
2023-03-30T06:18:31.593Z,99018.00
2023-03-30T06:21:07.787Z,99024.88
2023-03-30T06:24:08.989Z,99031.75
2023-03-30T06:26:41.191Z,99031.69
2023-03-30T06:29:13.956Z,99031.72
2023-03-30T06:31:43.651Z,99025.63
2023-03-30T06:34:41.385Z,99029.81
2023-03-30T06:37:10.492Z,99022.03
2023-03-30T06:39:38.957Z,99030.63
2023-03-30T06:42:08.040Z,99026.22
2023-03-30T06:44:58.145Z,99022.84
2023-03-30T06:47:27.861Z,99023.69
2023-03-30T06:49:57.356Z,99024.72
2023-03-30T06:52:52.826Z,99032.50
2023-03-30T06:55:22.959Z,99025.63
2023-03-30T06:57:51.686Z,99019.66
2023-03-30T07:00:23.416Z,99023.00
2023-03-30T07:03:10.795Z,99021.09
2023-03-30T07:05:49.941Z,99014.28
2023-03-30T07:08:31.630Z,99010.69
2023-03-30T07:11:00.233Z,99013.38
2023-03-30T07:13:32.134Z,99008.84
2023-03-30T07:16:02.431Z,99001.19
2023-03-30T07:18:33.213Z,99008.19
2023-03-30T07:21:02.102Z,99017.72
2023-03-30T07:23:34.566Z,99017.00
2023-03-30T07:26:03.474Z,99015.47
2023-03-30T07:28:49.240Z,99019.75
2023-03-30T07:31:20.621Z,99018.91
2023-03-30T07:33:51.065Z,99014.59
2023-03-30T07:36:24.609Z,99020.53
2023-03-30T07:38:54.171Z,99017.16
2023-03-30T07:41:22.713Z,99018.81
2023-03-30T07:43:56.794Z,99023.97
2023-03-30T07:46:27.333Z,99023.06
2023-03-30T07:48:57.061Z,99018.75
2023-03-30T07:51:28.084Z,99031.69
2023-03-30T07:54:07.001Z,99029.97
2023-03-30T07:56:54.277Z,99039.47
2023-03-30T07:59:24.377Z,99032.63
2023-03-30T08:01:57.184Z,99030.03
2023-03-30T08:04:44.702Z,99041.97
2023-03-30T08:07:16.740Z,99041.09
2023-03-30T08:09:47.077Z,99042.00
2023-03-30T08:12:15.800Z,99042.00
2023-03-30T08:14:46.646Z,99040.28
2023-03-30T08:17:17.199Z,99035.94
2023-03-30T08:19:45.798Z,99041.97
2023-03-30T08:22:15.340Z,99031.69
2023-03-30T08:24:43.920Z,99050.53
2023-03-30T08:27:12.409Z,99056.56
2023-03-30T08:29:44.043Z,99056.63
2023-03-30T08:32:15.090Z,99057.50
2023-03-30T08:34:45.192Z,99064.41
2023-03-30T08:37:15.173Z,99060.94
2023-03-30T08:39:44.018Z,99067.75
2023-03-30T08:42:36.819Z,99064.31
2023-03-30T08:45:06.336Z,99060.84
2023-03-30T08:47:36.975Z,99070.25
2023-03-30T08:50:14.216Z,99073.66
2023-03-30T08:52:43.147Z,99074.50
2023-03-30T08:55:20.047Z,99079.56
2023-03-30T08:57:52.921Z,99084.81
2023-03-30T09:00:28.630Z,99087.44
2023-03-30T09:03:03.793Z,99083.94
2023-03-30T09:05:37.904Z,99082.25
2023-03-30T09:08:09.929Z,99083.97
2023-03-30T09:10:41.482Z,99072.78
2023-03-30T09:13:13.976Z,99077.03
2023-03-30T09:15:45.682Z,99073.66
2023-03-30T09:18:17.439Z,99075.38
2023-03-30T09:20:48.514Z,99082.22
2023-03-30T09:23:19.535Z,99080.56
2023-03-30T09:25:53.987Z,99081.38
2023-03-30T09:28:27.430Z,99084.78
2023-03-30T09:31:00.955Z,99086.53
2023-03-30T09:33:34.202Z,99091.66
2023-03-30T09:36:12.073Z,99083.91
2023-03-30T09:38:42.029Z,99089.91
2023-03-30T09:41:23.231Z,99097.66
2023-03-30T09:43:53.106Z,99096.81
2023-03-30T09:46:22.889Z,99112.16
2023-03-30T09:48:53.449Z,99106.97
2023-03-30T09:51:25.617Z,99118.81
2023-03-30T09:54:00.179Z,99118.78
2023-03-30T09:56:30.106Z,99123.00
2023-03-30T09:58:58.507Z,99118.75
2023-03-30T10:01:38.450Z,99118.75
2023-03-30T10:04:10.449Z,99116.22
2023-03-30T10:06:47.947Z,99109.38
2023-03-30T10:09:17.964Z,99116.16
2023-03-30T10:11:48.165Z,99119.50
2023-03-30T10:14:35.753Z,99129.78
2023-03-30T10:17:06.429Z,99126.38
2023-03-30T10:19:38.372Z,99139.34
2023-03-30T10:22:18.304Z,99133.38
2023-03-30T10:24:55.453Z,99137.59
2023-03-30T10:27:29.535Z,99132.47
2023-03-30T10:29:58.059Z,99129.06
2023-03-30T10:32:31.382Z,99122.13
2023-03-30T10:35:05.566Z,99122.19
2023-03-30T10:37:37.460Z,99126.44
2023-03-30T10:40:16.304Z,99132.41
2023-03-30T10:42:46.075Z,99139.28
2023-03-30T10:45:24.777Z,99133.31
2023-03-30T10:48:11.676Z,99138.34
2023-03-30T10:50:46.553Z,99142.50
2023-03-30T10:53:29.579Z,99152.69
2023-03-30T10:56:05.996Z,99156.03
2023-03-30T10:58:46.071Z,99162.13
2023-03-30T11:01:17.783Z,99153.59
2023-03-30T11:03:52.702Z,99161.34
2023-03-30T11:06:24.307Z,99148.56
2023-03-30T11:08:57.991Z,99154.63
2023-03-30T11:11:34.798Z,99151.28
2023-03-30T11:14:05.142Z,99158.09
2023-03-30T11:16:40.083Z,99157.19
2023-03-30T11:19:13.852Z,99141.75
2023-03-30T11:21:48.714Z,99135.66
2023-03-30T11:24:21.830Z,99133.97
2023-03-30T11:26:55.168Z,99137.16
2023-03-30T11:29:31.418Z,99135.44
2023-03-30T11:32:09.010Z,99132.88
2023-03-30T11:34:49.735Z,99138.91
2023-03-30T11:37:24.916Z,99134.72
2023-03-30T11:39:58.644Z,99145.03
2023-03-30T11:42:31.857Z,99143.22
2023-03-30T11:45:05.660Z,99143.13
2023-03-30T11:47:47.247Z,99144.06
2023-03-30T11:50:25.921Z,99147.44
2023-03-30T11:53:06.521Z,99156.84
2023-03-30T11:55:45.620Z,99147.38
2023-03-30T11:58:22.044Z,99145.56
2023-03-30T12:00:59.491Z,99148.06
2023-03-30T12:03:37.608Z,99152.38
2023-03-30T12:06:19.023Z,99151.53
2023-03-30T12:08:59.973Z,99142.25
2023-03-30T12:11:36.364Z,99147.34
2023-03-30T12:14:11.466Z,99151.59
2023-03-30T12:16:44.862Z,99150.63
2023-03-30T12:19:16.597Z,99152.44
2023-03-30T12:21:52.442Z,99149.03
2023-03-30T12:24:26.289Z,99150.72
2023-03-30T12:27:05.788Z,99140.19
2023-03-30T12:32:26.995Z,99149.38
2023-03-30T12:34:58.211Z,99156.19
2023-03-30T12:37:29.383Z,99156.25
2023-03-30T12:40:06.983Z,99149.41
2023-03-30T12:42:46.548Z,99164.09
2023-03-30T12:45:24.452Z,99164.16
2023-03-30T12:48:20.886Z,99169.84
2023-03-30T12:50:57.821Z,99160.41
2023-03-30T12:53:52.235Z,99166.44
2023-03-30T12:56:29.418Z,99165.59
2023-03-30T12:59:30.266Z,99149.25
2023-03-30T13:02:12.787Z,99160.50
2023-03-30T13:04:42.289Z,99162.19
2023-03-30T13:07:16.607Z,99156.19
2023-03-30T13:09:59.750Z,99153.06
2023-03-30T13:12:34.481Z,99152.25
2023-03-30T13:15:08.420Z,99119.75
2023-03-30T13:17:51.131Z,99148.59
2023-03-30T13:20:29.125Z,99149.25
2023-03-30T13:23:30.484Z,99147.38
2023-03-30T13:26:08.571Z,99147.31
2023-03-30T13:28:48.910Z,99155.81
2023-03-30T13:31:37.074Z,99158.34
2023-03-30T13:34:14.592Z,99157.38
2023-03-30T13:36:48.317Z,99154.84
2023-03-30T13:39:24.016Z,99164.16
2023-03-30T13:42:02.850Z,99155.63
2023-03-30T13:44:43.819Z,99162.47
2023-03-30T13:47:27.916Z,99163.16
2023-03-30T13:50:00.145Z,99164.91
2023-03-30T13:52:32.793Z,99152.72
2023-03-30T13:55:02.125Z,99166.38
2023-03-30T13:57:36.275Z,99163.75
2023-03-30T14:00:08.777Z,99162.91
2023-03-30T14:02:43.207Z,99169.72
2023-03-30T14:05:16.468Z,99160.41
2023-03-30T14:07:47.322Z,99164.59
2023-03-30T14:10:18.727Z,99162.72
2023-03-30T14:12:50.500Z,99163.50
2023-03-30T14:15:24.287Z,99157.38
2023-03-30T14:17:57.197Z,99164.13
2023-03-30T14:20:40.369Z,99154.00
2023-03-30T14:23:15.126Z,99163.09
2023-03-30T14:25:43.557Z,99173.31
2023-03-30T14:28:15.666Z,99163.94
2023-03-30T14:30:55.271Z,99167.41
2023-03-30T14:33:25.882Z,99165.66
2023-03-30T14:35:56.767Z,99175.91
2023-03-30T14:38:27.633Z,99165.69
2023-03-30T14:40:56.469Z,99173.44
2023-03-30T14:43:29.772Z,99173.38
2023-03-30T14:46:00.117Z,99174.28
2023-03-30T14:48:32.062Z,99175.03
2023-03-30T14:51:02.656Z,99172.41
2023-03-30T14:53:31.553Z,99179.25
2023-03-30T14:56:02.621Z,99173.22
2023-03-30T14:58:34.671Z,99179.16
2023-03-30T15:01:09.184Z,99176.63
2023-03-30T15:03:39.811Z,99179.97
2023-03-30T15:06:09.761Z,99176.72
2023-03-30T15:08:39.622Z,99181.69
2023-03-30T15:11:10.209Z,99192.78
2023-03-30T15:13:41.764Z,99183.41
2023-03-30T15:16:15.613Z,99194.41
2023-03-30T15:18:49.074Z,99196.13
2023-03-30T15:21:17.753Z,99190.28
2023-03-30T15:23:49.808Z,99192.81
2023-03-30T15:26:19.626Z,99194.47
2023-03-30T15:28:51.173Z,99211.34
2023-03-30T15:31:21.129Z,99207.19
2023-03-30T15:33:53.942Z,99214.81
2023-03-30T15:36:26.268Z,99213.78
2023-03-30T15:38:56.088Z,99211.22
2023-03-30T15:41:27.415Z,99219.13
2023-03-30T15:43:59.740Z,99219.00
2023-03-30T15:46:29.126Z,99221.56
2023-03-30T15:48:59.561Z,99219.97
2023-03-30T15:51:33.189Z,99215.53
2023-03-30T15:54:03.679Z,99217.41
2023-03-30T15:56:35.345Z,99217.50
2023-03-30T15:59:04.049Z,99213.13
2023-03-30T16:01:44.143Z,99219.81
2023-03-30T16:04:17.098Z,99215.56
2023-03-30T16:06:47.527Z,99212.16
2023-03-30T16:09:16.406Z,99204.44
2023-03-30T16:11:46.118Z,99208.66
2023-03-30T16:14:16.657Z,99208.56
2023-03-30T16:16:45.234Z,99208.59
2023-03-30T16:19:16.087Z,99229.81
2023-03-30T16:21:45.507Z,99218.69
2023-03-30T16:24:14.221Z,99227.06
2023-03-30T16:26:42.814Z,99224.63
2023-03-30T16:29:19.200Z,99232.09
2023-03-30T16:31:47.934Z,99235.56
2023-03-30T16:34:18.190Z,99239.81
2023-03-30T16:36:48.193Z,99225.25
2023-03-30T16:39:19.113Z,99231.91
2023-03-30T16:41:48.674Z,99232.97
2023-03-30T16:44:17.739Z,99232.13
2023-03-30T16:46:46.761Z,99242.22
2023-03-30T16:49:18.539Z,99248.41
2023-03-30T16:51:47.099Z,99244.88
2023-03-30T16:54:29.456Z,99232.81
2023-03-30T16:57:01.098Z,99250.56
2023-03-30T16:59:31.404Z,99236.97
2023-03-30T17:02:00.455Z,99234.19
2023-03-30T17:04:30.591Z,99237.53
2023-03-30T17:06:59.255Z,99239.03
2023-03-30T17:09:27.926Z,99240.75
2023-03-30T17:11:56.646Z,99243.31
2023-03-30T17:14:28.203Z,99246.66
2023-03-30T17:16:56.799Z,99244.00
2023-03-30T17:19:28.284Z,99240.75
2023-03-30T17:21:58.440Z,99236.63
2023-03-30T17:24:26.839Z,99241.78
2023-03-30T17:26:56.383Z,99232.44
2023-03-30T17:29:24.796Z,99246.16
2023-03-30T17:31:53.227Z,99230.94
2023-03-30T17:34:22.036Z,99229.19
2023-03-30T17:36:53.364Z,99230.81
2023-03-30T17:39:23.481Z,99231.66
2023-03-30T17:41:51.885Z,99220.59
2023-03-30T17:44:20.635Z,99224.00
2023-03-30T17:46:49.477Z,99228.28
2023-03-30T17:49:18.295Z,99232.56
2023-03-30T17:51:47.293Z,99232.56
2023-03-30T17:54:15.872Z,99227.50
2023-03-30T17:56:45.794Z,99229.25
2023-03-30T17:59:14.554Z,99227.31
2023-03-30T18:01:43.950Z,99223.91
2023-03-30T18:04:17.836Z,99226.34
2023-03-30T18:06:48.946Z,99210.25
2023-03-30T18:09:17.864Z,99231.63
2023-03-30T18:11:47.969Z,99223.88
2023-03-30T18:14:16.442Z,99228.28
2023-03-30T18:16:45.930Z,99219.50
2023-03-30T18:19:14.536Z,99223.00
2023-03-30T18:21:43.457Z,99225.50
2023-03-30T18:24:11.924Z,99223.84
2023-03-30T18:26:43.155Z,99230.72
2023-03-30T18:29:20.443Z,99222.13
2023-03-30T18:31:51.016Z,99228.28
2023-03-30T18:34:20.464Z,99223.25
2023-03-30T18:36:48.839Z,99224.91
2023-03-30T18:39:19.934Z,99227.34
2023-03-30T18:41:49.084Z,99214.59
2023-03-30T18:44:20.663Z,99226.53
2023-03-30T18:46:52.010Z,99209.44
2023-03-30T18:49:23.586Z,99213.66
2023-03-30T18:51:52.347Z,99203.41
2023-03-30T18:54:21.401Z,99210.22
2023-03-30T18:56:50.148Z,99207.00
2023-03-30T18:59:23.132Z,99209.44
2023-03-30T19:01:53.377Z,99209.47
2023-03-30T19:04:22.306Z,99204.44
2023-03-30T19:06:53.131Z,99200.09
2023-03-30T19:09:29.819Z,99197.59
2023-03-30T19:12:05.436Z,99206.91
2023-03-30T19:14:35.493Z,99204.34
2023-03-30T19:17:04.168Z,99205.97
2023-03-30T19:19:32.758Z,99193.06
2023-03-30T19:22:01.205Z,99199.03
2023-03-30T19:24:29.898Z,99192.13
2023-03-30T19:27:01.119Z,99193.97
2023-03-30T19:29:29.717Z,99187.94
2023-03-30T19:32:00.100Z,99197.22
2023-03-30T19:34:29.093Z,99176.78
2023-03-30T19:36:57.509Z,99185.97
2023-03-30T19:39:26.315Z,99187.72
2023-03-30T19:41:54.803Z,99178.53
2023-03-30T19:44:23.387Z,99176.69
2023-03-30T19:46:51.745Z,99176.69
2023-03-30T19:49:21.820Z,99172.53
2023-03-30T19:52:39.818Z,99170.75
2023-03-30T19:55:24.267Z,99151.06
2023-03-30T19:57:53.013Z,99164.78
2023-03-30T20:00:21.843Z,99163.22
2023-03-30T20:02:52.468Z,99157.19
2023-03-30T20:05:23.803Z,99157.97
2023-03-30T20:07:52.596Z,99149.47
2023-03-30T20:10:23.069Z,99155.31
2023-03-30T20:12:53.120Z,99148.38
2023-03-30T20:15:22.774Z,99152.81
2023-03-30T20:17:58.690Z,99150.13
2023-03-30T20:20:32.310Z,99146.66
2023-03-30T20:23:01.118Z,99143.25
2023-03-30T20:25:29.672Z,99152.66
2023-03-30T20:27:58.059Z,99143.38
2023-03-30T20:30:29.137Z,99149.41
2023-03-30T20:33:07.361Z,99136.47
2023-03-30T20:35:39.444Z,99151.72
2023-03-30T20:38:08.526Z,99140.34
2023-03-30T20:40:37.060Z,99142.03
2023-03-30T20:43:10.277Z,99138.69
2023-03-30T20:45:46.298Z,99122.44
2023-03-30T20:48:26.339Z,99138.66
2023-03-30T20:50:57.604Z,99128.59
2023-03-30T20:53:26.111Z,99135.47
2023-03-30T20:55:54.656Z,99128.50
2023-03-30T20:58:23.586Z,99116.56
2023-03-30T21:00:53.200Z,99109.03
2023-03-30T21:03:26.324Z,99113.34
2023-03-30T21:06:01.618Z,99111.53
2023-03-30T21:08:32.654Z,99119.25
2023-03-30T21:11:01.801Z,99113.28
2023-03-30T21:13:30.600Z,99114.16
2023-03-30T21:15:59.197Z,99108.25
2023-03-30T21:18:27.713Z,99107.41
2023-03-30T21:20:57.141Z,99109.25
2023-03-30T21:23:27.503Z,99102.28
2023-03-30T21:25:58.002Z,99104.03
2023-03-30T21:28:28.730Z,99116.81
2023-03-30T21:30:58.020Z,99102.31
2023-03-30T21:33:27.723Z,99108.09
2023-03-30T21:35:58.329Z,99106.47
2023-03-30T21:38:29.854Z,99103.94
2023-03-30T21:41:00.924Z,99099.63
2023-03-30T21:43:31.491Z,99099.59
2023-03-30T21:46:01.628Z,99104.56
2023-03-30T21:48:32.055Z,99097.09
2023-03-30T21:51:02.185Z,99107.25
2023-03-30T21:53:33.094Z,99101.25
2023-03-30T21:56:01.748Z,99100.47
2023-03-30T21:58:30.806Z,99096.13
2023-03-30T22:01:11.080Z,99093.72
2023-03-30T22:03:41.583Z,99099.53
2023-03-30T22:06:11.874Z,99104.50
2023-03-30T22:08:42.322Z,99105.44
2023-03-30T22:11:13.750Z,99092.66
2023-03-30T22:13:42.903Z,99100.41
2023-03-30T22:16:14.034Z,99108.88
2023-03-30T22:18:43.278Z,99103.22
2023-03-30T22:21:14.597Z,99101.13
2023-03-30T22:23:44.775Z,99091.09
2023-03-30T22:26:13.823Z,99083.53
2023-03-30T22:28:42.842Z,99086.06
2023-03-30T22:31:13.936Z,99076.66
2023-03-30T22:33:42.996Z,99088.81
2023-03-30T22:36:17.558Z,99087.72
2023-03-30T22:38:47.864Z,99092.78
2023-03-30T22:41:16.881Z,99089.44
2023-03-30T22:43:45.725Z,99086.66
2023-03-30T22:46:14.473Z,99081.63
2023-03-30T22:48:43.400Z,99073.88
2023-03-30T22:51:14.568Z,99082.47
2023-03-30T22:53:43.317Z,99083.50
2023-03-30T22:56:13.181Z,99088.94
2023-03-30T22:58:42.072Z,99084.53
2023-03-30T23:01:11.448Z,99079.97
2023-03-30T23:03:40.417Z,99078.28
2023-03-30T23:06:09.529Z,99083.38
2023-03-30T23:08:39.303Z,99082.31
2023-03-30T23:11:08.468Z,99077.72
2023-03-30T23:13:42.285Z,99081.06
2023-03-30T23:16:11.767Z,99075.81
2023-03-30T23:18:40.577Z,99075.88
2023-03-30T23:21:11.183Z,99087.94
2023-03-30T23:23:40.211Z,99087.81
2023-03-30T23:26:10.432Z,99080.28
2023-03-30T23:28:41.459Z,99060.53
2023-03-30T23:31:10.838Z,99073.19
2023-03-30T23:33:39.317Z,99079.16
2023-03-30T23:36:09.063Z,99073.94
2023-03-30T23:38:38.010Z,99069.69
2023-03-30T23:41:07.885Z,99061.22
2023-03-30T23:43:36.484Z,99058.59
2023-03-30T23:46:06.751Z,99048.53
2023-03-30T23:48:35.397Z,99057.94
2023-03-30T23:51:03.969Z,99059.44
2023-03-30T23:53:32.529Z,99052.38
2023-03-30T23:56:05.880Z,99056.69
2023-03-30T23:58:34.679Z,99063.38
